sensor_id;sensor_type;location;lat;lon;timestamp;P1;durP1;ratioP1;P2;durP2;ratioP2
60292;SDS011;52402;52.670;6.750;2023-01-29T00:02:15;31.00;;;27.75;;
60292;SDS011;52402;52.670;6.750;2023-01-29T00:04:41;31.40;;;27.95;;
60292;SDS011;52402;52.670;6.750;2023-01-29T00:07:07;34.47;;;30.02;;
60292;SDS011;52402;52.670;6.750;2023-01-29T00:09:32;33.28;;;29.73;;
60292;SDS011;52402;52.670;6.750;2023-01-29T00:11:58;32.28;;;28.77;;
60292;SDS011;52402;52.670;6.750;2023-01-29T00:14:24;32.35;;;29.00;;
60292;SDS011;52402;52.670;6.750;2023-01-29T00:16:51;31.23;;;27.98;;
60292;SDS011;52402;52.670;6.750;2023-01-29T00:19:17;31.52;;;28.33;;
60292;SDS011;52402;52.670;6.750;2023-01-29T00:21:43;31.15;;;27.95;;
60292;SDS011;52402;52.670;6.750;2023-01-29T00:24:09;31.92;;;28.20;;
60292;SDS011;52402;52.670;6.750;2023-01-29T00:26:35;31.17;;;27.92;;
60292;SDS011;52402;52.670;6.750;2023-01-29T00:29:03;30.38;;;26.73;;
60292;SDS011;52402;52.670;6.750;2023-01-29T00:31:29;31.52;;;27.60;;
60292;SDS011;52402;52.670;6.750;2023-01-29T00:33:54;31.45;;;27.90;;
60292;SDS011;52402;52.670;6.750;2023-01-29T00:36:21;32.78;;;27.75;;
60292;SDS011;52402;52.670;6.750;2023-01-29T00:38:47;29.55;;;26.33;;
60292;SDS011;52402;52.670;6.750;2023-01-29T00:41:27;31.77;;;27.58;;
60292;SDS011;52402;52.670;6.750;2023-01-29T00:46:56;28.85;;;25.80;;
60292;SDS011;52402;52.670;6.750;2023-01-29T00:49:22;31.33;;;28.02;;
60292;SDS011;52402;52.670;6.750;2023-01-29T00:51:48;31.20;;;27.88;;
60292;SDS011;52402;52.670;6.750;2023-01-29T00:54:33;31.08;;;27.45;;
60292;SDS011;52402;52.670;6.750;2023-01-29T00:56:59;30.77;;;27.23;;
60292;SDS011;52402;52.670;6.750;2023-01-29T00:59:26;30.95;;;27.60;;
60292;SDS011;52402;52.670;6.750;2023-01-29T01:01:51;30.90;;;27.60;;
60292;SDS011;52402;52.670;6.750;2023-01-29T01:04:35;31.05;;;27.65;;
60292;SDS011;52402;52.670;6.750;2023-01-29T01:07:01;30.67;;;27.38;;
60292;SDS011;52402;52.670;6.750;2023-01-29T01:09:27;31.50;;;28.13;;
60292;SDS011;52402;52.670;6.750;2023-01-29T01:12:11;31.05;;;27.75;;
60292;SDS011;52402;52.670;6.750;2023-01-29T01:14:37;31.73;;;28.33;;
60292;SDS011;52402;52.670;6.750;2023-01-29T01:17:02;30.63;;;27.35;;
60292;SDS011;52402;52.670;6.750;2023-01-29T01:19:28;30.88;;;27.58;;
60292;SDS011;52402;52.670;6.750;2023-01-29T01:21:53;23.60;;;13.68;;
60292;SDS011;52402;52.670;6.750;2023-01-29T01:24:19;32.08;;;27.63;;
60292;SDS011;52402;52.670;6.750;2023-01-29T01:26:44;30.60;;;26.83;;
60292;SDS011;52402;52.670;6.750;2023-01-29T01:29:10;29.55;;;26.42;;
60292;SDS011;52402;52.670;6.750;2023-01-29T01:31:36;30.88;;;27.13;;
60292;SDS011;52402;52.670;6.750;2023-01-29T01:34:02;29.83;;;26.60;;
60292;SDS011;52402;52.670;6.750;2023-01-29T01:36:28;29.60;;;26.40;;
60292;SDS011;52402;52.670;6.750;2023-01-29T01:38:53;31.52;;;27.52;;
60292;SDS011;52402;52.670;6.750;2023-01-29T01:41:20;29.33;;;26.05;;
60292;SDS011;52402;52.670;6.750;2023-01-29T01:43:49;32.17;;;27.48;;
60292;SDS011;52402;52.670;6.750;2023-01-29T01:46:28;31.67;;;27.23;;
60292;SDS011;52402;52.670;6.750;2023-01-29T01:49:07;29.67;;;26.50;;
60292;SDS011;52402;52.670;6.750;2023-01-29T01:51:37;31.80;;;27.50;;
60292;SDS011;52402;52.670;6.750;2023-01-29T01:54:08;30.42;;;27.23;;
60292;SDS011;52402;52.670;6.750;2023-01-29T01:56:43;30.58;;;27.25;;
60292;SDS011;52402;52.670;6.750;2023-01-29T01:59:15;30.35;;;27.25;;
60292;SDS011;52402;52.670;6.750;2023-01-29T02:01:43;30.60;;;26.92;;
60292;SDS011;52402;52.670;6.750;2023-01-29T02:04:16;31.08;;;27.77;;
60292;SDS011;52402;52.670;6.750;2023-01-29T02:07:07;31.55;;;28.15;;
60292;SDS011;52402;52.670;6.750;2023-01-29T02:10:15;29.15;;;25.95;;
60292;SDS011;52402;52.670;6.750;2023-01-29T02:12:40;30.67;;;27.48;;
60292;SDS011;52402;52.670;6.750;2023-01-29T02:15:07;31.85;;;27.92;;
60292;SDS011;52402;52.670;6.750;2023-01-29T02:17:33;32.08;;;27.85;;
60292;SDS011;52402;52.670;6.750;2023-01-29T02:34:24;30.27;;;27.08;;
60292;SDS011;52402;52.670;6.750;2023-01-29T02:39:36;30.52;;;27.23;;
60292;SDS011;52402;52.670;6.750;2023-01-29T02:42:26;31.42;;;27.65;;
60292;SDS011;52402;52.670;6.750;2023-01-29T02:45:03;31.02;;;27.73;;
60292;SDS011;52402;52.670;6.750;2023-01-29T02:47:54;32.70;;;28.70;;
60292;SDS011;52402;52.670;6.750;2023-01-29T02:50:33;31.88;;;28.48;;
60292;SDS011;52402;52.670;6.750;2023-01-29T02:58:10;33.58;;;28.20;;
60292;SDS011;52402;52.670;6.750;2023-01-29T03:00:43;31.73;;;28.42;;
60292;SDS011;52402;52.670;6.750;2023-01-29T03:03:17;32.80;;;29.27;;
60292;SDS011;52402;52.670;6.750;2023-01-29T03:06:00;33.33;;;29.70;;
60292;SDS011;52402;52.670;6.750;2023-01-29T03:08:35;34.58;;;29.05;;
60292;SDS011;52402;52.670;6.750;2023-01-29T03:11:12;34.38;;;29.17;;
60292;SDS011;52402;52.670;6.750;2023-01-29T03:16:25;33.63;;;29.27;;
60292;SDS011;52402;52.670;6.750;2023-01-29T03:18:56;32.97;;;29.05;;
60292;SDS011;52402;52.670;6.750;2023-01-29T03:21:30;32.17;;;28.67;;
60292;SDS011;52402;52.670;6.750;2023-01-29T03:24:17;33.10;;;29.60;;
60292;SDS011;52402;52.670;6.750;2023-01-29T03:27:06;33.58;;;30.02;;
60292;SDS011;52402;52.670;6.750;2023-01-29T03:29:53;35.50;;;30.60;;
60292;SDS011;52402;52.670;6.750;2023-01-29T03:32:40;33.53;;;29.92;;
60292;SDS011;52402;52.670;6.750;2023-01-29T03:35:08;33.78;;;30.27;;
60292;SDS011;52402;52.670;6.750;2023-01-29T03:40:10;33.45;;;29.95;;
60292;SDS011;52402;52.670;6.750;2023-01-29T03:47:48;34.63;;;30.85;;
60292;SDS011;52402;52.670;6.750;2023-01-29T03:53:40;35.78;;;30.92;;
60292;SDS011;52402;52.670;6.750;2023-01-29T03:56:27;34.95;;;30.65;;
60292;SDS011;52402;52.670;6.750;2023-01-29T04:01:53;35.13;;;31.30;;
60292;SDS011;52402;52.670;6.750;2023-01-29T04:04:31;33.75;;;29.80;;
60292;SDS011;52402;52.670;6.750;2023-01-29T04:07:09;33.20;;;29.58;;
60292;SDS011;52402;52.670;6.750;2023-01-29T04:09:40;32.77;;;29.43;;
60292;SDS011;52402;52.670;6.750;2023-01-29T04:12:07;33.20;;;29.67;;
60292;SDS011;52402;52.670;6.750;2023-01-29T04:14:35;36.00;;;32.15;;
60292;SDS011;52402;52.670;6.750;2023-01-29T04:17:04;33.40;;;29.88;;
60292;SDS011;52402;52.670;6.750;2023-01-29T04:19:38;33.45;;;29.85;;
60292;SDS011;52402;52.670;6.750;2023-01-29T04:22:19;34.67;;;31.00;;
60292;SDS011;52402;52.670;6.750;2023-01-29T04:24:48;33.72;;;30.02;;
60292;SDS011;52402;52.670;6.750;2023-01-29T04:30:08;35.17;;;31.48;;
60292;SDS011;52402;52.670;6.750;2023-01-29T04:38:56;33.65;;;30.20;;
60292;SDS011;52402;52.670;6.750;2023-01-29T04:41:33;34.50;;;30.80;;
60292;SDS011;52402;52.670;6.750;2023-01-29T04:44:32;34.67;;;31.08;;
60292;SDS011;52402;52.670;6.750;2023-01-29T04:50:12;34.00;;;30.50;;
60292;SDS011;52402;52.670;6.750;2023-01-29T04:53:15;34.13;;;30.63;;
60292;SDS011;52402;52.670;6.750;2023-01-29T04:55:51;34.53;;;30.83;;
60292;SDS011;52402;52.670;6.750;2023-01-29T04:58:32;34.53;;;30.83;;
60292;SDS011;52402;52.670;6.750;2023-01-29T05:01:05;33.88;;;30.48;;
60292;SDS011;52402;52.670;6.750;2023-01-29T05:06:01;34.33;;;30.80;;
60292;SDS011;52402;52.670;6.750;2023-01-29T05:08:29;34.22;;;30.83;;
60292;SDS011;52402;52.670;6.750;2023-01-29T05:10:57;35.40;;;31.60;;
60292;SDS011;52402;52.670;6.750;2023-01-29T05:13:23;35.28;;;31.48;;
60292;SDS011;52402;52.670;6.750;2023-01-29T05:15:51;34.25;;;30.75;;
60292;SDS011;52402;52.670;6.750;2023-01-29T05:18:22;34.28;;;30.88;;
60292;SDS011;52402;52.670;6.750;2023-01-29T05:20:48;34.80;;;31.20;;
60292;SDS011;52402;52.670;6.750;2023-01-29T05:23:15;34.85;;;31.25;;
60292;SDS011;52402;52.670;6.750;2023-01-29T05:25:42;35.75;;;32.13;;
60292;SDS011;52402;52.670;6.750;2023-01-29T05:28:08;37.30;;;33.30;;
60292;SDS011;52402;52.670;6.750;2023-01-29T05:30:49;36.90;;;33.13;;
60292;SDS011;52402;52.670;6.750;2023-01-29T05:33:26;35.03;;;31.40;;
60292;SDS011;52402;52.670;6.750;2023-01-29T05:35:54;36.25;;;32.60;;
60292;SDS011;52402;52.670;6.750;2023-01-29T05:38:21;37.83;;;33.97;;
60292;SDS011;52402;52.670;6.750;2023-01-29T05:40:47;36.97;;;33.28;;
60292;SDS011;52402;52.670;6.750;2023-01-29T05:43:20;38.72;;;34.63;;
60292;SDS011;52402;52.670;6.750;2023-01-29T05:45:53;36.50;;;32.75;;
60292;SDS011;52402;52.670;6.750;2023-01-29T05:48:20;37.63;;;33.65;;
60292;SDS011;52402;52.670;6.750;2023-01-29T05:50:46;37.58;;;33.75;;
60292;SDS011;52402;52.670;6.750;2023-01-29T05:53:12;38.05;;;34.10;;
60292;SDS011;52402;52.670;6.750;2023-01-29T05:55:38;37.15;;;33.45;;
60292;SDS011;52402;52.670;6.750;2023-01-29T05:58:04;39.08;;;35.08;;
60292;SDS011;52402;52.670;6.750;2023-01-29T06:00:30;38.55;;;34.65;;
60292;SDS011;52402;52.670;6.750;2023-01-29T06:02:57;39.05;;;34.95;;
60292;SDS011;52402;52.670;6.750;2023-01-29T06:05:23;38.38;;;34.47;;
60292;SDS011;52402;52.670;6.750;2023-01-29T06:07:48;37.63;;;33.95;;
60292;SDS011;52402;52.670;6.750;2023-01-29T06:10:15;39.42;;;35.67;;
60292;SDS011;52402;52.670;6.750;2023-01-29T06:12:42;39.40;;;35.58;;
60292;SDS011;52402;52.670;6.750;2023-01-29T06:15:08;40.58;;;36.55;;
60292;SDS011;52402;52.670;6.750;2023-01-29T06:17:35;39.83;;;35.95;;
60292;SDS011;52402;52.670;6.750;2023-01-29T06:20:01;39.35;;;35.42;;
60292;SDS011;52402;52.670;6.750;2023-01-29T06:22:26;40.03;;;35.90;;
60292;SDS011;52402;52.670;6.750;2023-01-29T06:24:52;39.83;;;35.85;;
60292;SDS011;52402;52.670;6.750;2023-01-29T06:27:17;38.28;;;34.38;;
60292;SDS011;52402;52.670;6.750;2023-01-29T06:29:43;40.38;;;36.38;;
60292;SDS011;52402;52.670;6.750;2023-01-29T06:32:09;41.38;;;37.22;;
60292;SDS011;52402;52.670;6.750;2023-01-29T06:34:34;40.88;;;36.72;;
60292;SDS011;52402;52.670;6.750;2023-01-29T06:37:00;40.55;;;36.53;;
60292;SDS011;52402;52.670;6.750;2023-01-29T06:39:26;42.15;;;37.90;;
60292;SDS011;52402;52.670;6.750;2023-01-29T06:41:51;42.20;;;37.70;;
60292;SDS011;52402;52.670;6.750;2023-01-29T06:44:17;41.50;;;37.17;;
60292;SDS011;52402;52.670;6.750;2023-01-29T06:46:43;42.00;;;37.70;;
60292;SDS011;52402;52.670;6.750;2023-01-29T06:49:08;40.95;;;36.65;;
60292;SDS011;52402;52.670;6.750;2023-01-29T06:51:34;41.45;;;37.33;;
60292;SDS011;52402;52.670;6.750;2023-01-29T06:53:59;43.75;;;39.35;;
60292;SDS011;52402;52.670;6.750;2023-01-29T06:56:25;41.28;;;37.22;;
60292;SDS011;52402;52.670;6.750;2023-01-29T06:58:51;42.90;;;38.58;;
60292;SDS011;52402;52.670;6.750;2023-01-29T07:01:16;42.17;;;37.90;;
60292;SDS011;52402;52.670;6.750;2023-01-29T07:03:42;42.33;;;38.05;;
60292;SDS011;52402;52.670;6.750;2023-01-29T07:06:08;42.70;;;38.30;;
60292;SDS011;52402;52.670;6.750;2023-01-29T07:08:37;40.60;;;36.60;;
60292;SDS011;52402;52.670;6.750;2023-01-29T07:11:05;41.05;;;36.78;;
60292;SDS011;52402;52.670;6.750;2023-01-29T07:13:31;41.42;;;37.20;;
60292;SDS011;52402;52.670;6.750;2023-01-29T07:15:58;41.30;;;37.20;;
60292;SDS011;52402;52.670;6.750;2023-01-29T07:18:24;41.70;;;37.55;;
60292;SDS011;52402;52.670;6.750;2023-01-29T07:20:51;41.33;;;37.22;;
60292;SDS011;52402;52.670;6.750;2023-01-29T07:23:16;40.60;;;36.60;;
60292;SDS011;52402;52.670;6.750;2023-01-29T07:25:42;42.30;;;37.92;;
60292;SDS011;52402;52.670;6.750;2023-01-29T07:28:08;42.25;;;37.92;;
60292;SDS011;52402;52.670;6.750;2023-01-29T07:30:34;40.63;;;36.42;;
60292;SDS011;52402;52.670;6.750;2023-01-29T07:33:00;40.22;;;36.13;;
60292;SDS011;52402;52.670;6.750;2023-01-29T07:35:27;41.72;;;37.50;;
60292;SDS011;52402;52.670;6.750;2023-01-29T07:37:52;41.58;;;37.45;;
60292;SDS011;52402;52.670;6.750;2023-01-29T07:40:18;41.72;;;37.53;;
60292;SDS011;52402;52.670;6.750;2023-01-29T07:42:44;41.78;;;37.50;;
60292;SDS011;52402;52.670;6.750;2023-01-29T07:45:10;41.75;;;37.60;;
60292;SDS011;52402;52.670;6.750;2023-01-29T07:47:36;38.92;;;34.97;;
60292;SDS011;52402;52.670;6.750;2023-01-29T07:50:02;40.08;;;35.85;;
60292;SDS011;52402;52.670;6.750;2023-01-29T07:52:29;40.63;;;36.55;;
60292;SDS011;52402;52.670;6.750;2023-01-29T07:54:56;39.58;;;35.47;;
60292;SDS011;52402;52.670;6.750;2023-01-29T07:57:22;40.33;;;36.22;;
60292;SDS011;52402;52.670;6.750;2023-01-29T07:59:49;40.53;;;36.42;;
60292;SDS011;52402;52.670;6.750;2023-01-29T08:02:15;40.67;;;36.47;;
60292;SDS011;52402;52.670;6.750;2023-01-29T08:04:41;41.10;;;36.80;;
60292;SDS011;52402;52.670;6.750;2023-01-29T08:07:06;40.15;;;36.05;;
60292;SDS011;52402;52.670;6.750;2023-01-29T08:09:33;40.33;;;36.25;;
60292;SDS011;52402;52.670;6.750;2023-01-29T08:12:00;39.47;;;35.45;;
60292;SDS011;52402;52.670;6.750;2023-01-29T08:14:26;39.90;;;35.85;;
60292;SDS011;52402;52.670;6.750;2023-01-29T08:16:51;40.95;;;36.80;;
60292;SDS011;52402;52.670;6.750;2023-01-29T08:19:17;40.85;;;36.65;;
60292;SDS011;52402;52.670;6.750;2023-01-29T08:21:42;40.05;;;35.95;;
60292;SDS011;52402;52.670;6.750;2023-01-29T08:24:08;40.35;;;36.35;;
60292;SDS011;52402;52.670;6.750;2023-01-29T08:26:34;41.70;;;37.33;;
60292;SDS011;52402;52.670;6.750;2023-01-29T08:29:00;41.70;;;37.50;;
60292;SDS011;52402;52.670;6.750;2023-01-29T08:31:26;40.60;;;36.45;;
60292;SDS011;52402;52.670;6.750;2023-01-29T08:33:52;41.22;;;36.63;;
60292;SDS011;52402;52.670;6.750;2023-01-29T08:36:19;40.25;;;36.05;;
60292;SDS011;52402;52.670;6.750;2023-01-29T08:38:45;42.40;;;37.85;;
60292;SDS011;52402;52.670;6.750;2023-01-29T08:41:10;43.20;;;38.40;;
60292;SDS011;52402;52.670;6.750;2023-01-29T08:43:36;40.63;;;36.58;;
60292;SDS011;52402;52.670;6.750;2023-01-29T08:46:05;40.17;;;35.88;;
60292;SDS011;52402;52.670;6.750;2023-01-29T08:48:32;40.67;;;36.58;;
60292;SDS011;52402;52.670;6.750;2023-01-29T08:50:58;42.42;;;38.33;;
60292;SDS011;52402;52.670;6.750;2023-01-29T08:53:25;41.50;;;37.28;;
60292;SDS011;52402;52.670;6.750;2023-01-29T08:55:51;39.83;;;35.92;;
60292;SDS011;52402;52.670;6.750;2023-01-29T08:58:17;40.33;;;36.20;;
60292;SDS011;52402;52.670;6.750;2023-01-29T09:00:42;40.25;;;36.25;;
60292;SDS011;52402;52.670;6.750;2023-01-29T09:03:08;40.45;;;36.40;;
60292;SDS011;52402;52.670;6.750;2023-01-29T09:05:34;40.10;;;36.03;;
60292;SDS011;52402;52.670;6.750;2023-01-29T09:08:01;39.90;;;35.92;;
60292;SDS011;52402;52.670;6.750;2023-01-29T09:10:28;40.47;;;36.47;;
60292;SDS011;52402;52.670;6.750;2023-01-29T09:12:53;40.63;;;36.53;;
60292;SDS011;52402;52.670;6.750;2023-01-29T09:15:19;40.83;;;36.80;;
60292;SDS011;52402;52.670;6.750;2023-01-29T09:17:44;39.47;;;35.47;;
60292;SDS011;52402;52.670;6.750;2023-01-29T09:20:10;39.55;;;35.50;;
60292;SDS011;52402;52.670;6.750;2023-01-29T09:22:36;39.40;;;35.33;;
60292;SDS011;52402;52.670;6.750;2023-01-29T09:25:02;40.13;;;36.15;;
60292;SDS011;52402;52.670;6.750;2023-01-29T09:27:27;40.40;;;36.13;;
60292;SDS011;52402;52.670;6.750;2023-01-29T09:29:53;40.85;;;36.65;;
60292;SDS011;52402;52.670;6.750;2023-01-29T09:32:19;38.63;;;34.78;;
60292;SDS011;52402;52.670;6.750;2023-01-29T09:34:44;40.78;;;36.67;;
60292;SDS011;52402;52.670;6.750;2023-01-29T09:37:10;40.63;;;36.63;;
60292;SDS011;52402;52.670;6.750;2023-01-29T09:39:35;40.00;;;35.95;;
60292;SDS011;52402;52.670;6.750;2023-01-29T09:45:01;39.65;;;35.83;;
60292;SDS011;52402;52.670;6.750;2023-01-29T09:47:36;38.60;;;34.65;;
60292;SDS011;52402;52.670;6.750;2023-01-29T09:50:12;40.30;;;36.28;;
60292;SDS011;52402;52.670;6.750;2023-01-29T09:55:27;40.25;;;36.35;;
60292;SDS011;52402;52.670;6.750;2023-01-29T09:58:02;42.13;;;38.03;;
60292;SDS011;52402;52.670;6.750;2023-01-29T10:00:55;40.20;;;36.22;;
60292;SDS011;52402;52.670;6.750;2023-01-29T10:11:51;41.28;;;37.13;;
60292;SDS011;52402;52.670;6.750;2023-01-29T10:14:29;40.42;;;36.38;;
60292;SDS011;52402;52.670;6.750;2023-01-29T10:23:11;38.70;;;34.90;;
60292;SDS011;52402;52.670;6.750;2023-01-29T10:25:43;38.78;;;35.00;;
60292;SDS011;52402;52.670;6.750;2023-01-29T10:28:55;37.97;;;34.05;;
60292;SDS011;52402;52.670;6.750;2023-01-29T10:31:07;38.90;;;34.78;;
60292;SDS011;52402;52.670;6.750;2023-01-29T10:33:44;38.63;;;34.83;;
60292;SDS011;52402;52.670;6.750;2023-01-29T10:36:16;39.28;;;35.35;;
60292;SDS011;52402;52.670;6.750;2023-01-29T10:38:47;38.13;;;34.28;;
60292;SDS011;52402;52.670;6.750;2023-01-29T10:52:05;38.20;;;34.15;;
60292;SDS011;52402;52.670;6.750;2023-01-29T10:55:01;38.67;;;34.67;;
60292;SDS011;52402;52.670;6.750;2023-01-29T11:00:21;38.22;;;34.47;;
60292;SDS011;52402;52.670;6.750;2023-01-29T11:02:50;38.30;;;34.50;;
60292;SDS011;52402;52.670;6.750;2023-01-29T11:05:22;37.60;;;33.80;;
60292;SDS011;52402;52.670;6.750;2023-01-29T11:08:06;39.08;;;35.08;;
60292;SDS011;52402;52.670;6.750;2023-01-29T11:10:37;39.55;;;35.55;;
60292;SDS011;52402;52.670;6.750;2023-01-29T11:13:12;39.17;;;35.08;;
60292;SDS011;52402;52.670;6.750;2023-01-29T11:15:39;37.35;;;33.55;;
60292;SDS011;52402;52.670;6.750;2023-01-29T11:18:09;38.38;;;34.47;;
60292;SDS011;52402;52.670;6.750;2023-01-29T11:20:43;38.08;;;34.17;;
60292;SDS011;52402;52.670;6.750;2023-01-29T11:25:54;37.72;;;34.00;;
60292;SDS011;52402;52.670;6.750;2023-01-29T11:28:35;38.35;;;34.45;;
60292;SDS011;52402;52.670;6.750;2023-01-29T11:31:13;38.47;;;34.47;;
60292;SDS011;52402;52.670;6.750;2023-01-29T11:33:41;39.35;;;35.45;;
60292;SDS011;52402;52.670;6.750;2023-01-29T11:36:20;38.00;;;34.00;;
60292;SDS011;52402;52.670;6.750;2023-01-29T11:38:46;37.90;;;33.90;;
60292;SDS011;52402;52.670;6.750;2023-01-29T11:41:28;36.95;;;32.95;;
60292;SDS011;52402;52.670;6.750;2023-01-29T11:43:54;37.95;;;34.05;;
60292;SDS011;52402;52.670;6.750;2023-01-29T11:46:23;38.85;;;34.83;;
60292;SDS011;52402;52.670;6.750;2023-01-29T11:48:50;38.72;;;34.72;;
60292;SDS011;52402;52.670;6.750;2023-01-29T11:51:27;39.65;;;35.60;;
60292;SDS011;52402;52.670;6.750;2023-01-29T11:53:54;39.80;;;35.70;;
60292;SDS011;52402;52.670;6.750;2023-01-29T11:56:27;40.67;;;36.57;;
60292;SDS011;52402;52.670;6.750;2023-01-29T11:58:58;38.85;;;34.70;;
60292;SDS011;52402;52.670;6.750;2023-01-29T12:01:35;39.35;;;35.40;;
60292;SDS011;52402;52.670;6.750;2023-01-29T12:04:03;41.65;;;37.42;;
60292;SDS011;52402;52.670;6.750;2023-01-29T12:06:43;40.53;;;36.33;;
60292;SDS011;52402;52.670;6.750;2023-01-29T12:09:15;41.67;;;37.30;;
60292;SDS011;52402;52.670;6.750;2023-01-29T12:11:44;42.28;;;37.92;;
60292;SDS011;52402;52.670;6.750;2023-01-29T12:14:25;41.78;;;37.50;;
60292;SDS011;52402;52.670;6.750;2023-01-29T12:16:53;42.22;;;37.92;;
60292;SDS011;52402;52.670;6.750;2023-01-29T12:19:37;43.20;;;38.75;;
60292;SDS011;52402;52.670;6.750;2023-01-29T12:22:10;41.80;;;37.60;;
60292;SDS011;52402;52.670;6.750;2023-01-29T12:30:18;40.95;;;36.88;;
60292;SDS011;52402;52.670;6.750;2023-01-29T12:38:57;38.45;;;34.42;;
60292;SDS011;52402;52.670;6.750;2023-01-29T12:41:27;40.00;;;35.92;;
60292;SDS011;52402;52.670;6.750;2023-01-29T12:44:05;40.72;;;35.08;;
60292;SDS011;52402;52.670;6.750;2023-01-29T12:46:59;39.65;;;35.63;;
60292;SDS011;52402;52.670;6.750;2023-01-29T12:49:27;40.22;;;36.08;;
60292;SDS011;52402;52.670;6.750;2023-01-29T12:52:16;40.85;;;36.70;;
60292;SDS011;52402;52.670;6.750;2023-01-29T12:54:47;41.13;;;36.92;;
60292;SDS011;52402;52.670;6.750;2023-01-29T12:57:23;42.15;;;37.80;;
60292;SDS011;52402;52.670;6.750;2023-01-29T13:00:04;42.17;;;38.03;;
60292;SDS011;52402;52.670;6.750;2023-01-29T13:02:58;42.17;;;37.72;;
60292;SDS011;52402;52.670;6.750;2023-01-29T13:05:29;41.70;;;37.42;;
60292;SDS011;52402;52.670;6.750;2023-01-29T13:08:13;41.72;;;37.42;;
60292;SDS011;52402;52.670;6.750;2023-01-29T13:10:44;42.05;;;37.65;;
60292;SDS011;52402;52.670;6.750;2023-01-29T13:16:00;43.28;;;38.67;;
60292;SDS011;52402;52.670;6.750;2023-01-29T13:21:17;45.38;;;40.63;;
60292;SDS011;52402;52.670;6.750;2023-01-29T13:23:47;46.55;;;41.55;;
60292;SDS011;52402;52.670;6.750;2023-01-29T13:26:16;47.33;;;42.40;;
60292;SDS011;52402;52.670;6.750;2023-01-29T13:28:45;48.92;;;44.00;;
60292;SDS011;52402;52.670;6.750;2023-01-29T13:33:42;49.72;;;44.55;;
60292;SDS011;52402;52.670;6.750;2023-01-29T13:36:17;48.88;;;43.67;;
60292;SDS011;52402;52.670;6.750;2023-01-29T13:38:47;49.30;;;44.13;;
60292;SDS011;52402;52.670;6.750;2023-01-29T13:41:29;49.35;;;44.00;;
60292;SDS011;52402;52.670;6.750;2023-01-29T13:46:26;51.97;;;46.33;;
60292;SDS011;52402;52.670;6.750;2023-01-29T13:48:53;54.60;;;48.92;;
60292;SDS011;52402;52.670;6.750;2023-01-29T13:51:22;57.10;;;51.17;;
60292;SDS011;52402;52.670;6.750;2023-01-29T13:53:59;56.83;;;50.78;;
60292;SDS011;52402;52.670;6.750;2023-01-29T13:58:58;59.13;;;52.58;;
60292;SDS011;52402;52.670;6.750;2023-01-29T14:06:47;58.45;;;52.30;;
60292;SDS011;52402;52.670;6.750;2023-01-29T14:12:02;57.65;;;51.35;;
60292;SDS011;52402;52.670;6.750;2023-01-29T14:17:20;59.60;;;53.20;;
60292;SDS011;52402;52.670;6.750;2023-01-29T14:19:50;57.58;;;51.58;;
60292;SDS011;52402;52.670;6.750;2023-01-29T14:22:23;57.85;;;51.75;;
60292;SDS011;52402;52.670;6.750;2023-01-29T14:24:54;56.70;;;50.53;;
60292;SDS011;52402;52.670;6.750;2023-01-29T14:27:24;58.35;;;52.15;;
60292;SDS011;52402;52.670;6.750;2023-01-29T14:29:50;57.25;;;50.70;;
60292;SDS011;52402;52.670;6.750;2023-01-29T14:32:22;56.10;;;50.20;;
60292;SDS011;52402;52.670;6.750;2023-01-29T14:40:06;54.83;;;49.17;;
60292;SDS011;52402;52.670;6.750;2023-01-29T14:42:56;57.03;;;50.95;;
60292;SDS011;52402;52.670;6.750;2023-01-29T14:45:29;55.00;;;49.28;;
60292;SDS011;52402;52.670;6.750;2023-01-29T14:48:00;54.58;;;48.72;;
60292;SDS011;52402;52.670;6.750;2023-01-29T14:55:44;55.60;;;49.70;;
60292;SDS011;52402;52.670;6.750;2023-01-29T14:58:28;55.22;;;49.35;;
60292;SDS011;52402;52.670;6.750;2023-01-29T15:01:01;56.20;;;50.17;;
60292;SDS011;52402;52.670;6.750;2023-01-29T15:03:38;58.10;;;51.53;;
60292;SDS011;52402;52.670;6.750;2023-01-29T15:06:13;59.72;;;53.03;;
60292;SDS011;52402;52.670;6.750;2023-01-29T15:08:45;61.72;;;55.05;;
60292;SDS011;52402;52.670;6.750;2023-01-29T15:11:34;60.78;;;54.17;;
60292;SDS011;52402;52.670;6.750;2023-01-29T15:14:28;61.22;;;54.60;;
60292;SDS011;52402;52.670;6.750;2023-01-29T15:17:17;61.33;;;54.72;;
60292;SDS011;52402;52.670;6.750;2023-01-29T15:19:51;62.25;;;54.67;;
60292;SDS011;52402;52.670;6.750;2023-01-29T15:22:18;60.88;;;54.00;;
60292;SDS011;52402;52.670;6.750;2023-01-29T15:25:05;63.63;;;55.80;;
60292;SDS011;52402;52.670;6.750;2023-01-29T15:27:40;61.28;;;54.63;;
60292;SDS011;52402;52.670;6.750;2023-01-29T15:30:07;62.58;;;55.80;;
60292;SDS011;52402;52.670;6.750;2023-01-29T15:40:29;62.67;;;55.75;;
60292;SDS011;52402;52.670;6.750;2023-01-29T15:42:55;61.90;;;54.70;;
60292;SDS011;52402;52.670;6.750;2023-01-29T15:48:26;65.60;;;55.72;;
60292;SDS011;52402;52.670;6.750;2023-01-29T15:50:47;61.40;;;54.58;;
60292;SDS011;52402;52.670;6.750;2023-01-29T15:53:17;64.53;;;55.05;;
60292;SDS011;52402;52.670;6.750;2023-01-29T15:55:45;61.88;;;54.97;;
60292;SDS011;52402;52.670;6.750;2023-01-29T15:58:16;63.90;;;54.88;;
60292;SDS011;52402;52.670;6.750;2023-01-29T16:00:48;59.20;;;52.00;;
60292;SDS011;52402;52.670;6.750;2023-01-29T16:03:18;61.22;;;53.92;;
60292;SDS011;52402;52.670;6.750;2023-01-29T16:05:49;60.95;;;54.28;;
60292;SDS011;52402;52.670;6.750;2023-01-29T16:08:16;63.03;;;55.42;;
60292;SDS011;52402;52.670;6.750;2023-01-29T16:10:44;60.17;;;53.13;;
60292;SDS011;52402;52.670;6.750;2023-01-29T16:13:34;60.50;;;53.67;;
60292;SDS011;52402;52.670;6.750;2023-01-29T16:16:05;61.28;;;54.45;;
60292;SDS011;52402;52.670;6.750;2023-01-29T16:18:41;61.05;;;54.60;;
60292;SDS011;52402;52.670;6.750;2023-01-29T16:23:42;60.03;;;53.15;;
60292;SDS011;52402;52.670;6.750;2023-01-29T16:26:15;59.97;;;53.58;;
60292;SDS011;52402;52.670;6.750;2023-01-29T16:28:48;58.45;;;51.78;;
60292;SDS011;52402;52.670;6.750;2023-01-29T16:31:19;59.72;;;53.15;;
60292;SDS011;52402;52.670;6.750;2023-01-29T16:33:47;58.58;;;52.28;;
60292;SDS011;52402;52.670;6.750;2023-01-29T16:36:17;58.95;;;52.47;;
60292;SDS011;52402;52.670;6.750;2023-01-29T16:38:59;59.35;;;53.00;;
60292;SDS011;52402;52.670;6.750;2023-01-29T16:46:33;56.13;;;49.63;;
60292;SDS011;52402;52.670;6.750;2023-01-29T16:51:49;55.13;;;49.10;;
60292;SDS011;52402;52.670;6.750;2023-01-29T16:54:16;56.00;;;50.15;;
60292;SDS011;52402;52.670;6.750;2023-01-29T16:56:47;56.13;;;50.10;;
60292;SDS011;52402;52.670;6.750;2023-01-29T16:59:29;57.70;;;50.15;;
60292;SDS011;52402;52.670;6.750;2023-01-29T17:01:58;55.33;;;49.25;;
60292;SDS011;52402;52.670;6.750;2023-01-29T17:04:24;57.70;;;50.65;;
60292;SDS011;52402;52.670;6.750;2023-01-29T17:06:54;55.78;;;49.88;;
60292;SDS011;52402;52.670;6.750;2023-01-29T17:09:32;55.05;;;49.13;;
60292;SDS011;52402;52.670;6.750;2023-01-29T17:12:00;56.15;;;49.65;;
60292;SDS011;52402;52.670;6.750;2023-01-29T17:14:29;54.75;;;48.72;;
60292;SDS011;52402;52.670;6.750;2023-01-29T17:17:14;52.78;;;47.13;;
60292;SDS011;52402;52.670;6.750;2023-01-29T17:19:42;54.05;;;48.38;;
60292;SDS011;52402;52.670;6.750;2023-01-29T17:22:08;52.78;;;47.10;;
60292;SDS011;52402;52.670;6.750;2023-01-29T17:27:05;54.15;;;48.47;;